Time;durP1;ratioP1;P1;durP2;ratioP2;P2;SDS_P1;SDS_P2;PMS_P1;PMS_P2;Temp;Humidity;BMP_temperature;BMP_pressure;BME280_temperature;BME280_humidity;BME280_pressure;Samples;Min_cycle;Max_cycle;Signal;HPM_P1;HPM_P2
2022/11/05 00:09:34;;;;;;;7.50;4.32;;;;;;;7.55;100.00;100508.81;4963325;28;20057;-73
2022/11/05 00:18:19;;;;;;;7.40;4.10;;;;;;;7.66;100.00;100518.84;4956294;28;20030;-74
2022/11/05 00:20:47;;;;;;;7.50;4.32;;;;;;;7.70;100.00;100517.28;4950512;28;20039;-74
2022/11/05 00:26:01;;;;;;;5.05;3.58;;;;;;;7.79;100.00;100509.53;4935893;28;20066;-75
2022/11/05 00:28:28;;;;;;;5.43;2.83;;;;;;;7.86;100.00;100505.56;4950256;28;20053;-74
2022/11/05 00:31:09;;;;;;;2.78;2.03;;;;;;;7.99;100.00;100515.34;4924587;28;20015;-73
2022/11/05 00:33:37;;;;;;;1.98;1.38;;;;;;;8.00;100.00;100510.69;4958170;28;20094;-75
2022/11/05 00:36:05;;;;;;;1.67;1.20;;;;;;;8.07;100.00;100516.00;4929980;29;20057;-73
2022/11/05 00:38:30;;;;;;;1.55;1.10;;;;;;;8.09;100.00;100520.13;4938977;29;20024;-74
2022/11/05 00:40:56;;;;;;;1.00;0.70;;;;;;;8.12;100.00;100514.19;4912703;29;20031;-74
2022/11/05 00:46:06;;;;;;;0.98;0.80;;;;;;;8.18;100.00;100505.00;4932042;29;20050;-74
2022/11/05 00:51:16;;;;;;;5.38;3.10;;;;;;;8.14;100.00;100500.31;4940956;28;20503;-73
2022/11/05 00:53:46;;;;;;;5.15;3.05;;;;;;;8.21;100.00;100500.97;4959531;28;20039;-73
2022/11/05 00:56:12;;;;;;;4.93;3.55;;;;;;;8.28;100.00;100490.75;4947087;28;20398;-75
2022/11/05 00:58:37;;;;;;;8.45;4.32;;;;;;;8.32;100.00;100491.06;4945925;28;20031;-73
2022/11/05 01:01:28;;;;;;;8.02;4.07;;;;;;;8.12;100.00;100495.13;4944389;29;20027;-74
2022/11/05 01:03:53;;;;;;;9.73;4.05;;;;;;;8.04;100.00;100487.34;4948567;28;20031;-76
2022/11/05 01:06:26;;;;;;;5.20;3.05;;;;;;;8.04;100.00;100484.63;4929641;29;20044;-75
2022/11/05 01:08:54;;;;;;;6.38;3.47;;;;;;;8.07;100.00;100500.47;4957457;28;20058;-75
2022/11/05 01:11:32;;;;;;;6.53;3.28;;;;;;;8.10;100.00;100497.25;4931941;29;20063;-73
2022/11/05 01:14:04;;;;;;;7.35;3.08;;;;;;;8.12;100.00;100503.28;4941598;29;20444;-74
2022/11/05 01:16:30;;;;;;;7.93;2.90;;;;;;;8.08;100.00;100491.22;4951930;29;20035;-73
2022/11/05 01:18:55;;;;;;;5.57;2.60;;;;;;;8.11;100.00;100493.47;4946224;29;20011;-72
2022/11/05 01:21:21;;;;;;;6.97;2.40;;;;;;;8.04;100.00;100484.63;4924825;28;20104;-73
2022/11/05 01:23:46;;;;;;;4.50;2.42;;;;;;;7.94;100.00;100485.28;4954288;28;20042;-73
2022/11/05 01:26:12;;;;;;;4.35;2.35;;;;;;;7.83;100.00;100489.75;4958675;28;20059;-73
2022/11/05 01:28:38;;;;;;;4.35;1.65;;;;;;;7.80;100.00;100486.69;4930156;29;20063;-75
2022/11/05 01:31:04;;;;;;;3.13;2.00;;;;;;;7.75;100.00;100481.97;4931812;28;20070;-75
2022/11/05 01:33:29;;;;;;;2.67;1.95;;;;;;;7.72;100.00;100487.09;4899368;29;20036;-74
2022/11/05 01:36:05;;;;;;;;;;;;;;;;;;;;;
2022/11/05 01:38:31;;;;;;;5.40;1.92;;;;;;;7.68;100.00;100470.41;4923037;29;20094;-76
2022/11/05 01:40:56;;;;;;;7.38;2.08;;;;;;;7.66;100.00;100467.13;4941306;29;20062;-76
2022/11/05 01:43:22;;;;;;;5.53;2.03;;;;;;;7.59;100.00;100467.25;4945537;28;20126;-76
2022/11/05 01:45:56;;;;;;;4.90;2.00;;;;;;;7.55;100.00;100459.84;4919392;29;20031;-77
2022/11/05 01:48:53;;;;;;;3.30;1.80;;;;;;;7.45;100.00;100461.31;4950460;28;20596;-76
2022/11/05 01:51:24;;;;;;;6.32;1.95;;;;;;;7.51;100.00;100462.22;4968434;28;20129;-74
2022/11/05 01:54:02;;;;;;;3.65;1.50;;;;;;;7.48;100.00;100457.28;4945867;28;20027;-74
2022/11/05 01:56:55;;;;;;;5.05;2.20;;;;;;;7.47;100.00;100453.72;4953134;29;20119;-74
2022/11/05 01:59:28;;;;;;;4.53;2.13;;;;;;;7.40;100.00;100441.34;4940882;29;20552;-75
2022/11/05 02:01:53;;;;;;;1.83;1.58;;;;;;;7.34;100.00;100448.59;4954783;28;20075;-73
2022/11/05 02:04:34;;;;;;;2.92;2.03;;;;;;;7.38;100.00;100451.66;4956511;28;20023;-74
2022/11/05 02:07:01;;;;;;;4.20;2.03;;;;;;;7.41;100.00;100451.97;4938286;29;20078;-74
2022/11/05 02:09:52;;;;;;;3.38;2.03;;;;;;;7.37;100.00;100442.66;4939981;28;20017;-75
2022/11/05 02:12:19;;;;;;;2.95;2.17;;;;;;;7.36;100.00;100451.91;4953280;29;20151;-75
2022/11/05 02:14:44;;;;;;;2.17;1.40;;;;;;;7.38;100.00;100448.94;4944522;29;20039;-75
2022/11/05 02:17:25;;;;;;;2.15;1.38;;;;;;;7.30;100.00;100447.41;4927472;28;20031;-74
2022/11/05 02:20:05;;;;;;;3.38;1.25;;;;;;;7.33;100.00;100444.22;4943769;29;20031;-73
2022/11/05 02:22:56;;;;;;;2.33;1.70;;;;;;;7.43;100.00;100438.97;4936251;28;20027;-74
2022/11/05 02:25:40;;;;;;;2.55;1.40;;;;;;;7.48;100.00;100444.50;4946639;29;20250;-73
2022/11/05 02:28:33;;;;;;;3.88;2.40;;;;;;;7.54;100.00;100452.75;4933554;28;20042;-73
2022/11/05 02:31:11;;;;;;;2.80;1.90;;;;;;;7.57;100.00;100452.28;4944467;28;20115;-73
2022/11/05 02:34:23;;;;;;;2.03;1.60;;;;;;;7.53;100.00;100451.09;4964441;28;20070;-74
2022/11/05 02:36:55;;;;;;;1.75;1.20;;;;;;;7.56;100.00;100450.59;4914102;28;20122;-73
2022/11/05 02:39:46;;;;;;;3.83;1.90;;;;;;;7.55;100.00;100446.22;4959706;28;20063;-72
2022/11/05 02:42:34;;;;;;;7.63;2.13;;;;;;;7.67;100.00;100449.72;4964435;28;20100;-74
2022/11/05 02:45:31;;;;;;;4.38;2.50;;;;;;;7.74;100.00;100447.66;4964083;28;20032;-74
2022/11/05 02:48:12;;;;;;;5.93;2.83;;;;;;;7.69;100.00;100447.56;4925244;28;20095;-74
2022/11/05 02:50:51;;;;;;;4.30;2.53;;;;;;;7.60;100.00;100440.88;4960008;28;20024;-74
2022/11/05 02:53:46;;;;;;;6.80;3.75;;;;;;;7.61;100.00;100445.28;4948798;29;20031;-75
2022/11/05 02:56:35;;;;;;;7.70;3.13;;;;;;;7.59;100.00;100439.22;4948613;29;20074;-76
2022/11/05 02:59:00;;;;;;;9.50;3.63;;;;;;;7.60;100.00;100430.81;4943779;28;20030;-76
2022/11/05 03:01:26;;;;;;;5.35;2.88;;;;;;;7.63;100.00;100430.31;4946839;29;20082;-76
2022/11/05 03:04:00;;;;;;;5.43;3.00;;;;;;;7.69;100.00;100439.41;4914988;28;20031;-76
2022/11/05 03:06:31;;;;;;;7.22;4.05;;;;;;;7.70;100.00;100435.63;4945825;29;20038;-76
2022/11/05 03:09:23;;;;;;;5.00;2.95;;;;;;;7.71;100.00;100437.28;4945140;29;20031;-76
2022/11/05 03:12:09;;;;;;;3.85;2.42;;;;;;;7.74;100.00;100430.50;4941991;28;20019;-75
2022/11/05 03:14:56;;;;;;;4.05;2.47;;;;;;;7.76;100.00;100426.47;4950400;28;20049;-75
2022/11/05 03:17:25;;;;;;;3.15;2.30;;;;;;;7.85;100.00;100422.25;4952612;28;20039;-76
2022/11/05 03:20:20;;;;;;;3.28;2.05;;;;;;;7.93;100.00;100429.19;4939736;28;20033;-76
2022/11/05 03:22:53;;;;;;;3.90;2.15;;;;;;;7.91;100.00;100427.78;4968016;28;20027;-75
2022/11/05 03:25:21;;;;;;;4.45;2.33;;;;;;;7.93;100.00;100418.28;4969201;28;20042;-76
2022/11/05 03:27:53;;;;;;;8.27;2.40;;;;;;;7.95;100.00;100415.31;4948474;28;20059;-77
2022/11/05 03:30:19;;;;;;;5.28;2.92;;;;;;;7.97;100.00;100411.28;4962715;29;20066;-76
2022/11/05 03:32:54;;;;;;;4.43;2.60;;;;;;;8.01;100.00;100406.16;4947458;29;20010;-76
2022/11/05 03:35:24;;;;;;;3.08;2.10;;;;;;;8.08;100.00;100414.97;4950012;28;20007;-77
2022/11/05 03:37:54;;;;;;;5.28;2.70;;;;;;;8.08;100.00;100409.53;4934777;29;20016;-77
2022/11/05 03:40:23;;;;;;;5.03;2.70;;;;;;;8.13;100.00;100406.88;4951225;29;20049;-77
2022/11/05 03:42:54;;;;;;;5.82;3.08;;;;;;;7.95;100.00;100407.16;4949680;28;20038;-76
2022/11/05 03:45:29;;;;;;;6.05;3.83;;;;;;;7.95;100.00;100404.44;4953347;29;20101;-76
2022/11/05 03:47:59;;;;;;;4.93;2.92;;;;;;;7.89;100.00;100395.34;4950834;29;20070;-76
2022/11/05 03:50:48;;;;;;;6.10;3.22;;;;;;;7.97;100.00;100407.72;4943679;28;20035;-76
2022/11/05 03:53:19;;;;;;;6.85;3.20;;;;;;;8.00;100.00;100401.75;4944057;29;20034;-77
2022/11/05 03:56:01;;;;;;;10.00;3.53;;;;;;;8.06;100.00;100406.25;4941372;28;20343;-75
2022/11/05 03:58:31;;;;;;;9.43;3.80;;;;;;;8.10;100.00;100407.38;4949322;29;20035;-76
2022/11/05 04:01:11;;;;;;;4.38;2.53;;;;;;;8.12;100.00;100404.38;4941406;28;20018;-76
2022/11/05 04:03:37;;;;;;;3.53;2.15;;;;;;;8.24;100.00;100407.03;4933910;28;20012;-77
2022/11/05 04:14:19;;;;;;;4.30;2.50;;;;;;;8.47;100.00;100389.63;4954167;28;20180;-76
2022/11/05 04:25:02;;;;;;;8.38;3.80;;;;;;;8.61;100.00;100379.19;4942372;28;20038;-76
2022/11/05 04:27:28;;;;;;;7.97;3.90;;;;;;;8.70;100.00;100388.56;4935432;28;20119;-76
2022/11/05 04:32:37;;;;;;;6.63;2.63;;;;;;;8.68;100.00;100385.28;4938367;28;20076;-76
2022/11/05 04:35:03;;;;;;;4.15;2.55;;;;;;;8.68;100.00;100379.84;4966432;28;20027;-75
2022/11/05 04:37:28;;;;;;;3.13;2.33;;;;;;;8.73;100.00;100388.06;4921751;29;20128;-74
2022/11/05 04:39:54;;;;;;;2.80;1.75;;;;;;;8.80;100.00;100393.31;4920087;28;20038;-75
2022/11/05 04:42:19;;;;;;;2.58;1.35;;;;;;;8.72;100.00;100379.06;4975795;28;20541;-75
2022/11/05 04:44:45;;;;;;;3.60;1.70;;;;;;;8.75;100.00;100385.91;4949594;28;20031;-77
2022/11/05 04:47:10;;;;;;;6.68;2.90;;;;;;;8.78;100.00;100379.94;4929104;29;20103;-76
2022/11/05 04:49:36;;;;;;;10.32;3.53;;;;;;;8.85;100.00;100382.50;4915270;28;20031;-76
2022/11/05 04:52:26;;;;;;;4.32;2.90;;;;;;;8.74;100.00;100379.63;4947971;28;20055;-76
2022/11/05 04:54:52;;;;;;;7.43;3.22;;;;;;;8.69;100.00;100376.03;4931537;29;20035;-77
2022/11/05 04:57:20;;;;;;;3.97;3.08;;;;;;;8.69;100.00;100370.59;4932412;28;20063;-76
2022/11/05 04:59:47;;;;;;;6.15;3.45;;;;;;;8.71;100.00;100373.88;4965687;28;20027;-76
2022/11/05 05:02:43;;;;;;;6.97;3.70;;;;;;;8.67;100.00;100368.13;4951936;28;20039;-78
2022/11/05 05:05:29;;;;;;;5.53;2.95;;;;;;;8.63;100.00;100356.06;4960021;29;20087;-76
2022/11/05 05:08:05;;;;;;;6.07;3.15;;;;;;;8.68;100.00;100363.47;4936132;29;20031;-76
2022/11/05 05:10:34;;;;;;;5.60;3.42;;;;;;;8.68;100.00;100358.03;4959010;28;20031;-77
2022/11/05 05:13:02;;;;;;;3.83;2.70;;;;;;;8.72;100.00;100359.16;4959660;28;20008;-76
2022/11/05 05:15:27;;;;;;;4.32;2.17;;;;;;;8.70;100.00;100355.84;4916644;28;20526;-77
2022/11/05 05:17:52;;;;;;;6.63;3.60;;;;;;;8.71;100.00;100352.06;4929567;28;20121;-77
2022/11/05 05:23:03;;;;;;;11.48;4.95;;;;;;;8.65;100.00;100353.09;4945205;28;20049;-76
2022/11/05 05:25:30;;;;;;;10.77;4.07;;;;;;;8.62;100.00;100354.41;4939505;29;20041;-76
2022/11/05 05:27:57;;;;;;;7.78;3.72;;;;;;;8.62;100.00;100342.69;4943498;28;20066;-76
2022/11/05 05:30:23;;;;;;;9.90;4.00;;;;;;;8.61;100.00;100347.31;4915294;29;20041;-76
2022/11/05 05:32:49;;;;;;;11.02;4.47;;;;;;;8.64;100.00;100348.69;4940676;28;20035;-76
2022/11/05 05:35:15;;;;;;;8.07;3.53;;;;;;;8.69;100.00;100343.31;4922373;29;20032;-75
2022/11/05 05:37:41;;;;;;;7.00;3.25;;;;;;;8.67;100.00;100346.31;4930612;28;20027;-75
2022/11/05 05:40:07;;;;;;;4.25;2.60;;;;;;;8.63;100.00;100339.72;4924493;29;20070;-75
2022/11/05 05:42:33;;;;;;;3.30;1.63;;;;;;;8.69;100.00;100343.31;4953339;29;20014;-75
2022/11/05 05:44:58;;;;;;;2.80;2.00;;;;;;;8.68;100.00;100336.22;4922056;29;20031;-76
2022/11/05 05:47:24;;;;;;;3.47;2.03;;;;;;;8.65;100.00;100334.00;4950674;29;20394;-77
2022/11/05 05:49:49;;;;;;;5.43;2.90;;;;;;;8.68;100.00;100325.31;4952520;28;20029;-75
2022/11/05 05:52:14;;;;;;;3.67;2.53;;;;;;;8.73;100.00;100328.91;4913838;29;20041;-76
2022/11/05 05:54:40;;;;;;;5.93;2.63;;;;;;;8.72;100.00;100326.44;4960776;28;20066;-75
2022/11/05 05:57:05;;;;;;;4.22;2.42;;;;;;;8.74;100.00;100330.53;4950847;28;20045;-75
2022/11/05 05:59:31;;;;;;;6.15;2.30;;;;;;;8.79;100.00;100332.53;4940631;29;20367;-76
2022/11/05 06:01:56;;;;;;;5.35;2.80;;;;;;;8.82;100.00;100326.56;4945718;28;20062;-77
2022/11/05 06:04:24;;;;;;;4.53;3.00;;;;;;;8.83;100.00;100321.91;4950705;28;20043;-76
2022/11/05 06:06:49;;;;;;;4.50;2.85;;;;;;;8.94;100.00;100325.59;4907015;29;20032;-76
2022/11/05 06:09:15;;;;;;;2.78;2.20;;;;;;;8.91;100.00;100319.56;4955103;28;20069;-77
2022/11/05 06:11:41;;;;;;;3.20;2.05;;;;;;;8.88;100.00;100320.06;4954364;29;20133;-76
2022/11/05 06:14:11;;;;;;;1.73;1.58;;;;;;;8.81;100.00;100314.00;4949204;28;20082;-78
2022/11/05 06:16:38;;;;;;;1.83;1.45;;;;;;;8.74;100.00;100303.28;4966815;28;20040;-77
2022/11/05 06:19:07;;;;;;;2.60;1.40;;;;;;;8.78;100.00;100314.50;4921070;28;20036;-76
2022/11/05 06:21:42;;;;;;;2.33;1.60;;;;;;;8.80;100.00;100312.34;4952275;29;20034;-78
2022/11/05 06:24:09;;;;;;;2.58;1.40;;;;;;;8.79;100.00;100310.72;4939712;28;20031;-78
2022/11/05 06:26:44;;;;;;;4.13;1.48;;;;;;;8.78;100.00;100305.53;4956465;28;20058;-79
2022/11/05 06:29:12;;;;;;;1.65;1.25;;;;;;;8.82;100.00;100312.94;4951928;28;20039;-79
2022/11/05 06:31:40;;;;;;;4.82;2.72;;;;;;;8.86;100.00;100311.34;4949444;29;20030;-77
2022/11/05 06:34:05;;;;;;;2.55;1.83;;;;;;;8.91;100.00;100314.09;4930958;29;20087;-77
2022/11/05 06:36:31;;;;;;;2.45;1.70;;;;;;;8.95;100.00;100310.84;4932551;28;20075;-78
2022/11/05 06:39:06;;;;;;;4.38;2.00;;;;;;;9.00;100.00;100311.72;4950324;29;20031;-77
2022/11/05 06:41:33;;;;;;;4.97;2.55;;;;;;;9.02;100.00;100303.28;4950019;28;20038;-77
2022/11/05 06:43:59;;;;;;;5.35;2.08;;;;;;;9.04;100.00;100312.06;4938145;28;20035;-72
2022/11/05 06:46:26;;;;;;;5.68;2.47;;;;;;;9.07;100.00;100314.25;4954312;28;20176;-76
2022/11/05 06:48:52;;;;;;;3.22;2.10;;;;;;;9.11;100.00;100312.63;4970798;28;20039;-74
2022/11/05 06:51:20;;;;;;;5.45;3.00;;;;;;;9.17;100.00;100310.78;4947126;28;20524;-73
2022/11/05 06:53:47;;;;;;;4.90;2.17;;;;;;;9.15;100.00;100308.31;4942120;28;20031;-73
2022/11/05 06:56:13;;;;;;;4.45;2.65;;;;;;;9.16;100.00;100299.06;4946848;28;20389;-74
2022/11/05 06:58:38;;;;;;;3.58;1.90;;;;;;;9.20;100.00;100289.28;4945820;28;20028;-77
2022/11/05 07:01:07;;;;;;;4.47;1.85;;;;;;;9.20;100.00;100299.34;4938670;28;20042;-78
2022/11/05 07:03:37;;;;;;;2.83;1.90;;;;;;;9.25;100.00;100311.13;4970162;28;20014;-77
2022/11/05 07:06:04;;;;;;;3.25;2.15;;;;;;;9.32;100.00;100301.91;4939496;28;20022;-78
2022/11/05 07:08:34;;;;;;;9.27;2.53;;;;;;;9.39;100.00;100302.53;4965165;28;20035;-77
2022/11/05 07:11:06;;;;;;;3.08;1.92;;;;;;;9.39;100.00;100300.59;4962832;28;20031;-78
2022/11/05 07:13:34;;;;;;;7.50;2.63;;;;;;;9.39;100.00;100302.53;4942430;29;20115;-78
2022/11/05 07:16:00;;;;;;;5.07;2.60;;;;;;;9.38;100.00;100300.88;4945705;28;20031;-79
2022/11/05 07:18:26;;;;;;;7.88;3.25;;;;;;;9.38;100.00;100306.31;4955542;28;20031;-78
2022/11/05 07:20:51;;;;;;;5.18;2.97;;;;;;;9.39;100.00;100305.25;4963239;28;20382;-77
2022/11/05 07:23:20;;;;;;;6.70;3.35;;;;;;;9.47;100.00;100304.75;4953488;28;20027;-78
2022/11/05 07:25:48;;;;;;;3.47;2.10;;;;;;;9.48;100.00;100303.69;4930211;28;20038;-78
2022/11/05 07:28:24;;;;;;;5.00;2.67;;;;;;;9.47;100.00;100299.28;4950025;29;20034;-78
2022/11/05 07:30:50;;;;;;;7.07;3.38;;;;;;;9.48;100.00;100287.31;4951299;28;20027;-77
2022/11/05 07:33:15;;;;;;;6.10;2.50;;;;;;;9.58;100.00;100290.09;4919091;28;20095;-78
2022/11/05 07:35:50;;;;;;;4.97;2.72;;;;;;;9.64;100.00;100287.38;4928806;28;20023;-79
2022/11/05 07:38:21;;;;;;;4.63;2.25;;;;;;;9.52;100.00;100274.78;4942677;28;20035;-80
2022/11/05 07:40:50;;;;;;;5.68;2.70;;;;;;;9.53;100.00;100287.31;4914829;28;20023;-78
2022/11/05 07:43:16;;;;;;;4.88;2.47;;;;;;;9.55;100.00;100274.25;4955727;28;20012;-77
2022/11/05 07:45:41;;;;;;;3.20;2.38;;;;;;;9.51;100.00;100278.59;4927554;28;20039;-77
2022/11/05 07:48:09;;;;;;;5.85;2.90;;;;;;;9.52;100.00;100273.94;4951311;28;20027;-78
2022/11/05 07:50:36;;;;;;;5.53;2.95;;;;;;;9.53;100.00;100279.13;4952423;28;20039;-79
2022/11/05 07:53:06;;;;;;;6.07;2.60;;;;;;;9.59;100.00;100286.28;4952591;28;20020;-80
2022/11/05 07:55:33;;;;;;;3.58;2.00;;;;;;;9.62;100.00;100284.91;4961368;28;20035;-78
2022/11/05 07:57:58;;;;;;;6.68;2.40;;;;;;;9.66;100.00;100290.69;4942626;28;20027;-79
2022/11/05 08:00:25;;;;;;;4.55;2.97;;;;;;;9.75;100.00;100289.94;4931779;28;20034;-78
2022/11/05 08:03:06;;;;;;;3.08;2.42;;;;;;;9.82;100.00;100288.88;4955022;28;20126;-79
2022/11/05 08:05:35;;;;;;;5.45;2.30;;;;;;;9.91;100.00;100281.81;4944914;28;20026;-79
2022/11/05 08:08:00;;;;;;;5.63;2.05;;;;;;;9.89;100.00;100290.28;4961007;29;20019;-79
2022/11/05 08:10:36;;;;;;;1.90;1.60;;;;;;;9.92;100.00;100278.81;4949382;28;20027;-80
2022/11/05 08:13:34;;;;;;;;;;;;;;;;;;;;;
2022/11/05 08:16:07;;;;;;;4.32;2.20;;;;;;;10.03;100.00;100278.88;4930538;28;20034;-80
2022/11/05 08:18:33;;;;;;;2.40;1.77;;;;;;;10.04;100.00;100280.53;4974885;28;20027;-79
2022/11/05 08:21:04;;;;;;;1.30;1.20;;;;;;;10.10;100.00;100276.72;4911269;28;20031;-79
2022/11/05 08:23:37;;;;;;;2.88;1.83;;;;;;;10.11;100.00;100259.25;4940346;28;20039;-79
2022/11/05 08:26:03;;;;;;;2.95;1.98;;;;;;;10.16;100.00;100261.19;4952512;28;20044;-79
2022/11/05 08:28:36;;;;;;;4.72;1.85;;;;;;;10.21;100.00;100263.94;4936295;29;20049;-80
2022/11/05 08:31:01;;;;;;;3.17;1.90;;;;;;;10.21;100.00;100259.28;4943213;28;20095;-80
2022/11/05 08:33:30;;;;;;;2.67;1.55;;;;;;;10.28;100.00;100262.59;4913600;29;20096;-80
2022/11/05 08:35:55;;;;;;;6.65;2.20;;;;;;;10.41;100.00;100263.19;4913418;29;20035;-80
2022/11/05 08:38:26;;;;;;;2.25;1.70;;;;;;;10.59;100.00;100265.44;4939431;28;20042;-79
2022/11/05 08:40:54;;;;;;;3.88;1.60;;;;;;;10.79;100.00;100247.41;4927663;29;20035;-79
2022/11/05 08:43:20;;;;;;;3.65;2.10;;;;;;;10.76;100.00;100256.16;4949448;28;20044;-79
2022/11/05 08:45:48;;;;;;;5.15;2.20;;;;;;;10.73;100.00;100251.25;4945099;29;20039;-79
2022/11/05 08:48:19;;;;;;;2.40;1.75;;;;;;;10.70;100.00;100238.94;4942480;29;20043;-78
2022/11/05 08:50:55;;;;;;;5.65;2.05;;;;;;;10.82;100.00;100233.22;4952998;29;20094;-79
2022/11/05 08:53:21;;;;;;;3.95;2.05;;;;;;;10.93;100.00;100226.63;4932973;29;20039;-79
2022/11/05 08:55:50;;;;;;;3.47;1.60;;;;;;;11.11;100.00;100222.56;4939933;29;20025;-76
2022/11/05 08:58:19;;;;;;;3.58;1.80;;;;;;;11.33;100.00;100219.50;4945043;29;20032;-78
2022/11/05 09:00:47;;;;;;;3.47;1.42;;;;;;;11.50;100.00;100215.66;4940601;29;20067;-79
2022/11/05 09:03:12;;;;;;;5.50;2.78;;;;;;;11.78;100.00;100213.38;4942681;28;20024;-78
2022/11/05 09:05:39;;;;;;;3.80;2.03;;;;;;;11.98;100.00;100199.63;4943434;29;20656;-79
2022/11/05 09:08:07;;;;;;;1.92;1.45;;;;;;;12.23;100.00;100201.41;4932689;29;20156;-79
2022/11/05 09:10:37;;;;;;;5.85;2.42;;;;;;;12.36;100.00;100197.22;4942489;28;20059;-79
2022/11/05 09:13:03;;;;;;;3.17;2.00;;;;;;;12.35;100.00;100192.88;4953557;29;20031;-78
2022/11/05 09:15:32;;;;;;;4.15;2.03;;;;;;;12.43;100.00;100188.69;4924026;29;20087;-78
2022/11/05 09:17:58;;;;;;;4.70;2.33;;;;;;;12.43;100.00;100199.66;4970890;28;20019;-80
2022/11/05 09:20:24;;;;;;;4.80;2.05;;;;;;;12.30;100.00;100198.38;4960734;29;20011;-78
2022/11/05 09:22:50;;;;;;;3.50;1.90;;;;;;;12.28;100.00;100200.59;4941264;29;20491;-78
2022/11/05 09:25:15;;;;;;;2.97;1.70;;;;;;;12.29;100.00;100202.22;4960579;28;20035;-78
2022/11/05 09:27:44;;;;;;;4.20;1.85;;;;;;;12.27;100.00;100200.88;4960919;28;20069;-76
2022/11/05 09:30:13;;;;;;;5.35;1.90;;;;;;;12.10;100.00;100209.44;4974345;28;20023;-76
2022/11/05 09:32:39;;;;;;;2.33;1.63;;;;;;;11.96;100.00;100204.59;4957659;28;20037;-78
2022/11/05 09:35:07;;;;;;;10.88;2.42;;;;;;;11.89;100.00;100212.25;4960438;28;20030;-78
2022/11/05 09:37:35;;;;;;;9.98;2.58;;;;;;;11.85;100.00;100198.28;4961705;29;20055;-79
2022/11/05 09:40:01;;;;;;;4.55;2.50;;;;;;;11.86;100.00;100204.59;4951303;28;20039;-78
2022/11/05 09:42:45;;;;;;;2.95;2.05;;;;;;;11.93;100.00;100205.16;4946615;29;20047;-75
2022/11/05 09:45:17;;;;;;;;;;;;;;;12.04;100.00;100201.22;4957545;28;20038;-76
2022/11/05 09:48:15;;;;;;;4.85;2.78;;;;;;;12.12;100.00;100190.78;4957522;29;19917;-79
2022/11/05 09:50:45;;;;;;;6.72;2.10;;;;;;;12.39;100.00;100184.88;4947866;28;20088;-78
2022/11/05 09:53:20;;;;;;;11.55;2.45;;;;;;;12.49;100.00;100178.53;4953861;28;20039;-78
2022/11/05 09:56:15;;;;;;;8.27;2.67;;;;;;;12.67;100.00;100180.56;4938239;29;20047;-76
2022/11/05 09:58:51;;;;;;;3.85;2.55;;;;;;;12.80;100.00;100178.28;4949364;29;20015;-77
2022/11/05 10:01:25;;;;;;;7.57;2.78;;;;;;;12.81;100.00;100180.75;4953483;29;20083;-77
2022/11/05 10:03:55;;;;;;;8.85;2.10;;;;;;;12.88;100.00;100180.44;4961346;29;20046;-76
2022/11/05 10:06:26;;;;;;;7.70;2.25;;;;;;;12.91;100.00;100171.63;4952882;29;20007;-77
2022/11/05 10:09:08;;;;;;;10.18;2.38;;;;;;;12.89;100.00;100171.06;4954088;28;20018;-77
2022/11/05 10:11:56;;;;;;;10.90;2.28;;;;;;;12.69;100.00;100183.03;4947083;29;20035;-76
2022/11/05 10:14:27;;;;;;;12.35;2.92;;;;;;;12.55;100.00;100174.63;4935033;28;20039;-79
2022/11/05 10:17:10;;;;;;;10.85;2.42;;;;;;;12.51;100.00;100170.81;4945288;29;20060;-77
2022/11/05 10:20:24;;;;;;;;;;;;;;;;;;;;;
2022/11/05 10:22:38;;;;;;;8.75;2.40;;;;;;;12.14;100.00;100185.88;4952935;28;20418;-77
2022/11/05 10:25:41;;;;;;;16.25;2.70;;;;;;;12.10;100.00;100190.25;4948488;28;20051;-79
2022/11/05 10:28:38;;;;;;;7.45;2.30;;;;;;;12.12;100.00;100169.69;4929513;29;20044;-77
2022/11/05 10:31:26;;;;;;;;;;;;;;;;;;;;;
2022/11/05 10:34:04;;;;;;;8.70;2.40;;;;;;;12.03;100.00;100174.94;4931335;29;20126;-76
2022/11/05 10:36:36;;;;;;;10.35;2.70;;;;;;;12.05;100.00;100177.41;4946215;29;20020;-77
2022/11/05 10:39:30;;;;;;;;;;;;;;;;;;;;;
2022/11/05 10:42:12;;;;;;;7.88;2.13;;;;;;;12.13;100.00;100168.56;4933647;29;20083;-75
2022/11/05 10:45:30;;;;;;;16.02;2.72;;;;;;;12.28;100.00;100156.72;4937754;29;20119;-78
2022/11/05 10:48:33;;;;;;;7.68;1.73;;;;;;;12.48;100.00;100155.75;4936291;29;20039;-79
2022/11/05 10:53:57;;;;;;;5.95;1.40;;;;;;;12.20;100.00;100154.56;4929236;29;20036;-80
2022/11/05 10:56:46;;;;;;;8.45;2.20;;;;;;;12.14;100.00;100150.22;4936980;29;20040;-78
2022/11/05 10:59:53;;;;;;;;;;;;;;;;;;;;;
2022/11/05 11:03:09;;;;;;;;;;;;;;;;;;;;;
2022/11/05 11:08:50;;;;;;;7.50;1.00;;;;;;;12.22;100.00;100124.94;4917867;29;20047;-78
2022/11/05 11:12:01;;;;;;;12.95;2.00;;;;;;;12.22;100.00;100120.28;4933667;29;20077;-78
2022/11/05 11:14:55;;;;;;;;;;;;;;;;;;;;;
2022/11/05 11:17:54;;;;;;;4.40;1.30;;;;;;;12.43;100.00;100113.84;4870207;29;20139;-79
2022/11/05 11:24:05;;;;;;;;;;;;;;;;;;;;;
2022/11/05 11:27:24;;;;;;;;;;;;;;;;;;;;;
2022/11/05 11:30:05;;;;;;;8.15;1.63;;;;;;;12.24;100.00;100100.81;4961665;28;20566;-75
2022/11/05 11:32:58;;;;;;;19.67;1.73;;;;;;;12.34;100.00;100072.50;4956523;28;20030;-75
2022/11/05 11:35:45;;;;;;;;;;;;;;;;;;;;;
2022/11/05 11:38:17;;;;;;;4.20;1.00;;;;;;;12.64;100.00;100070.59;4972231;28;20106;-75
2022/11/05 11:41:09;;;;;;;5.57;1.58;;;;;;;12.67;100.00;100070.03;4949723;28;20919;-75
2022/11/05 11:44:30;;;;;;;;;;;;;;;;;;;;;
2022/11/05 11:50:46;;;;;;;6.32;1.17;;;;;;;12.91;100.00;100009.69;4939741;28;20051;-76
2022/11/05 11:53:48;;;;;;;9.80;1.25;;;;;;;13.00;100.00;100007.94;4937913;28;20027;-76
2022/11/05 11:56:35;;;;;;;;;;;;;;;;;;;;;
2022/11/05 11:59:22;;;;;;;5.88;1.42;;;;;;;12.94;100.00;100050.28;4969400;28;20087;-75
2022/11/05 12:02:21;;;;;;;11.70;1.45;;;;;;;12.89;100.00;100055.81;4951928;28;20054;-74
2022/11/05 12:05:33;;;;;;;4.75;0.90;;;;;;;12.88;100.00;100076.16;4956565;28;20019;-75
2022/11/05 12:08:13;;;;;;;5.50;1.20;;;;;;;12.70;100.00;100094.13;4932582;29;20028;-74
2022/11/05 12:11:48;;;;;;;;;;;;;;;;;;;;;
2022/11/05 12:14:33;;;;;;;;;;;;;;;;;;;;;
2022/11/05 12:17:46;;;;;;;;;;;;;;;;;;;;;
2022/11/05 12:20:57;;;;;;;8.05;1.17;;;;;;;12.19;100.00;100066.03;4803124;29;20106;-75
2022/11/05 12:23:49;;;;;;;8.15;1.27;;;;;;;12.26;100.00;100054.72;4869704;29;20049;-76
2022/11/05 12:26:51;;;;;;;9.15;0.93;;;;;;;12.39;100.00;100037.63;4963245;28;20107;-74
2022/11/05 12:29:26;;;;;;;8.27;1.08;;;;;;;12.51;100.00;100055.63;4941895;28;20087;-75
2022/11/05 12:32:33;;;;;;;;;;;;;;;;;;;;;
2022/11/05 12:35:44;;;;;;;;;;;;;;;;;;;;;
2022/11/05 12:38:26;;;;;;;;;;;;;;;;;;;;;
2022/11/05 12:41:22;;;;;;;5.50;0.88;;;;;;;12.37;100.00;100042.59;4968880;28;20090;-75
2022/11/05 12:44:24;;;;;;;;;;;;;;;;;;;;;
2022/11/05 12:53:49;;;;;;;1.13;0.17;;;;;;;12.31;100.00;100019.06;4930848;29;20044;-77
2022/11/05 13:04:42;;;;;;;8.52;1.67;;;;;;;12.26;100.00;100016.34;4796275;29;20019;-76
2022/11/05 13:08:49;;;;;;;;;;;;;;;;;;;;;
2022/11/05 13:22:22;;;;;;;;;;;;;;;;;;;;;
2022/11/05 13:28:50;;;;;;;;;;;;;;;;;;;;;
2022/11/05 13:32:01;;;;;;;;;;;;;;;;;;;;;
2022/11/05 13:45:38;;;;;;;5.53;0.95;;;;;;;12.30;100.00;99968.06;4769932;29;20858;-75
2022/11/05 13:55:32;;;;;;;6.85;1.08;;;;;;;12.31;100.00;99936.81;4805419;29;20018;-76
2022/11/05 14:09:52;;;;;;;;;;;;;;;;;;;;;
2022/11/05 14:13:11;;;;;;;;;;;;;;;;;;;;;
2022/11/05 14:17:19;;;;;;;2.28;0.57;;;;;;;12.49;100.00;99920.72;4769030;30;20118;-78
2022/11/05 14:20:37;;;;;;;;;;;;;;;;;;;;;
2022/11/05 17:15:00;;;;;;;0.98;0.47;;;;;;;12.81;100.00;99820.50;4041320;27;20328;-76
2022/11/05 17:17:28;;;;;;;0.08;0.08;;;;;;;12.83;100.00;99826.50;4927600;28;20308;-77
2022/11/05 17:20:03;;;;;;;0.08;0.08;;;;;;;12.84;100.00;99814.41;4908846;29;20106;-79
2022/11/05 17:22:34;;;;;;;4.05;0.20;;;;;;;12.86;100.00;99814.91;4916883;29;20068;-78
2022/11/05 17:25:02;;;;;;;0.30;0.30;;;;;;;12.86;100.00;99825.91;4938825;28;20300;-77
2022/11/05 17:27:47;;;;;;;;;;;;;;;;;;;;;
2022/11/05 17:30:31;;;;;;;0.22;0.22;;;;;;;12.96;100.00;99820.25;4930745;29;20119;-78
2022/11/05 17:33:06;;;;;;;0.03;0.03;;;;;;;12.94;100.00;99811.53;4925075;28;20067;-77